createdAt,value
2017-02-08T00:00:11.699Z,96.92
2017-02-08T00:00:37.859Z,97.02
2017-02-08T00:01:03.981Z,97.39
2017-02-08T00:01:30.156Z,97.02
2017-02-08T00:01:56.299Z,97.39
2017-02-08T00:02:22.432Z,96.83
2017-02-08T00:02:48.640Z,96.54
2017-02-08T00:03:14.803Z,97.2
2017-02-08T00:03:40.927Z,96.35
2017-02-08T00:04:07.024Z,97.11
2017-02-08T00:04:33.191Z,97.02
2017-02-08T00:04:59.280Z,97.3
2017-02-08T00:05:25.401Z,97.3
2017-02-08T00:05:51.565Z,97.3
2017-02-08T00:06:17.697Z,96.64
2017-02-08T00:06:43.854Z,95.78
2017-02-08T00:07:09.995Z,95.59
2017-02-08T00:07:36.116Z,95.88
2017-02-08T00:08:02.228Z,95.88
2017-02-08T00:08:28.324Z,96.45
2017-02-08T00:08:54.436Z,96.35
2017-02-08T00:09:20.599Z,96.07
2017-02-08T00:09:46.774Z,95.59
2017-02-08T00:10:12.943Z,95.5
2017-02-08T00:10:39.134Z,95.69
2017-02-08T00:11:05.263Z,95.59
2017-02-08T00:11:31.385Z,96.07
2017-02-08T00:11:57.546Z,96.16
2017-02-08T00:12:23.665Z,95.88
2017-02-08T00:12:49.798Z,96.07
2017-02-08T00:13:16.008Z,95.69
2017-02-08T00:13:42.169Z,96.16
2017-02-08T00:14:08.279Z,96.26
2017-02-08T00:14:34.406Z,96.07
2017-02-08T00:15:00.522Z,95.88
2017-02-08T00:15:26.698Z,96.54
2017-02-08T00:15:52.870Z,96.54
2017-02-08T00:16:18.954Z,96.54
2017-02-08T00:16:45.110Z,96.73
2017-02-08T00:17:11.306Z,96.64
2017-02-08T00:17:37.392Z,96.64
2017-02-08T00:18:03.511Z,96.35
2017-02-08T00:18:29.663Z,96.07
2017-02-08T00:18:55.834Z,95.78
2017-02-08T00:19:21.966Z,95.59
2017-02-08T00:19:48.111Z,95.69
2017-02-08T00:20:14.238Z,96.26
2017-02-08T00:20:40.405Z,96.16
2017-02-08T00:21:06.535Z,96.26
2017-02-08T00:21:32.697Z,96.16
2017-02-08T00:21:58.872Z,96.07
2017-02-08T00:22:25.034Z,95.88
2017-02-08T00:22:51.181Z,95.88
2017-02-08T00:23:17.371Z,95.59
2017-02-08T00:23:43.558Z,95.59
2017-02-08T00:24:39.494Z,95.59
2017-02-08T00:25:05.637Z,94.93
2017-02-08T00:25:31.781Z,95.21
2017-02-08T00:25:57.921Z,96.07
2017-02-08T00:26:24.077Z,95.4
2017-02-08T00:26:50.294Z,95.21
2017-02-08T00:27:16.384Z,95.31
2017-02-08T00:27:42.528Z,95.78
2017-02-08T00:28:08.748Z,95.69
2017-02-08T00:28:34.879Z,95.97
2017-02-08T00:29:01.000Z,95.88
2017-02-08T00:29:27.121Z,96.07
2017-02-08T00:29:53.271Z,95.31
2017-02-08T00:30:19.437Z,95.31
2017-02-08T00:30:45.556Z,94.93
2017-02-08T00:31:11.711Z,95.4
2017-02-08T00:31:37.851Z,95.78
2017-02-08T00:32:04.007Z,95.88
2017-02-08T00:32:30.181Z,95.78
2017-02-08T00:32:56.385Z,95.78
2017-02-08T00:33:22.551Z,95.5
2017-02-08T00:33:48.691Z,95.97
2017-02-08T00:34:14.874Z,95.5
2017-02-08T00:34:41.023Z,95.69
2017-02-08T00:35:07.157Z,95.59
2017-02-08T00:35:33.312Z,95.31
2017-02-08T00:35:59.432Z,95.03
2017-02-08T00:36:25.627Z,95.31
2017-02-08T00:36:51.819Z,95.4
2017-02-08T00:37:17.957Z,95.21
2017-02-08T00:37:44.156Z,95.12
2017-02-08T00:38:10.323Z,94.93
2017-02-08T00:38:36.438Z,95.03
2017-02-08T00:39:02.539Z,94.74
2017-02-08T00:39:28.822Z,95.21
2017-02-08T00:39:54.970Z,95.12
2017-02-08T00:40:21.117Z,94.93
2017-02-08T00:40:47.258Z,95.21
2017-02-08T00:41:13.426Z,95.03
2017-02-08T00:41:39.592Z,94.74
2017-02-08T00:42:05.728Z,94.74
2017-02-08T00:42:31.861Z,95.03
2017-02-08T00:42:57.996Z,94.93
2017-02-08T00:43:24.170Z,95.12
2017-02-08T00:43:50.299Z,95.12
2017-02-08T00:44:16.440Z,94.74
2017-02-08T00:44:42.586Z,94.27
2017-02-08T00:45:08.759Z,94.56
2017-02-08T00:45:34.881Z,95.03
2017-02-08T00:46:00.997Z,95.12
2017-02-08T00:46:27.166Z,94.89
2017-02-08T00:46:53.332Z,94.7
2017-02-08T00:47:19.506Z,94.84
2017-02-08T00:47:45.593Z,95.12
2017-02-08T00:48:11.781Z,95.31
2017-02-08T00:48:37.974Z,95.4
2017-02-08T00:49:04.198Z,95.31
2017-02-08T00:49:30.331Z,94.84
2017-02-08T00:49:56.497Z,95.21
2017-02-08T00:50:22.589Z,95.21
2017-02-08T00:50:48.703Z,95.4
2017-02-08T00:51:14.863Z,95.21
2017-02-08T00:51:41.014Z,95.03
2017-02-08T00:52:07.188Z,94.93
2017-02-08T00:52:33.331Z,94.74
2017-02-08T00:52:59.458Z,94.84
2017-02-08T00:53:25.568Z,94.65
2017-02-08T00:53:51.733Z,94.56
2017-02-08T00:54:17.890Z,94.84
2017-02-08T00:54:44.004Z,94.93
2017-02-08T00:55:10.163Z,94.98
2017-02-08T00:55:36.326Z,95.12
2017-02-08T00:56:02.469Z,94.51
2017-02-08T00:56:28.599Z,94.84
2017-02-08T00:56:54.743Z,94.6
2017-02-08T00:57:20.836Z,95.17
2017-02-08T00:57:46.932Z,95.31
2017-02-08T00:58:13.075Z,95.07
2017-02-08T00:58:39.253Z,95.4
2017-02-08T00:59:05.390Z,95.03
2017-02-08T00:59:31.579Z,94.74
2017-02-08T00:59:57.734Z,94.79
2017-02-08T01:00:23.875Z,95.03
2017-02-08T01:00:50.009Z,94.7
2017-02-08T01:01:16.170Z,95.26
2017-02-08T01:01:42.328Z,94.79
2017-02-08T01:02:08.512Z,95.17
2017-02-08T01:02:34.625Z,95.17
2017-02-08T01:03:00.773Z,94.7
2017-02-08T01:03:26.958Z,95.17
2017-02-08T01:03:53.022Z,95.03
2017-02-08T01:04:19.129Z,94.7
2017-02-08T01:04:45.265Z,95.03
2017-02-08T01:05:11.426Z,95.21
2017-02-08T01:05:37.639Z,94.79
2017-02-08T01:06:03.767Z,95.07
2017-02-08T01:06:29.880Z,94.93
2017-02-08T01:06:56.035Z,94.89
2017-02-08T01:07:22.135Z,95.03
2017-02-08T01:07:48.255Z,94.89
2017-02-08T01:08:14.477Z,94.89
2017-02-08T01:08:40.588Z,95.12
2017-02-08T01:09:06.801Z,94.89
2017-02-08T01:09:32.991Z,94.84
2017-02-08T01:09:59.189Z,94.74
2017-02-08T01:10:25.346Z,94.84
2017-02-08T01:10:51.512Z,95.03
2017-02-08T01:11:17.677Z,94.74
2017-02-08T01:11:43.792Z,95.26
2017-02-08T01:12:09.904Z,94.84
2017-02-08T01:12:36.098Z,95.31
2017-02-08T01:13:02.269Z,95.4
2017-02-08T01:13:28.397Z,94.84
2017-02-08T01:13:54.523Z,95.21
2017-02-08T01:14:20.684Z,94.46
2017-02-08T01:14:46.818Z,94.74
2017-02-08T01:15:12.991Z,94.84
2017-02-08T01:15:39.136Z,95.03
2017-02-08T01:16:05.265Z,94.74
2017-02-08T01:16:31.399Z,94.84
2017-02-08T01:16:57.514Z,94.84
2017-02-08T01:17:23.634Z,94.84
2017-02-08T01:17:49.831Z,94.18
2017-02-08T01:18:16.124Z,94.37
2017-02-08T01:18:42.249Z,93.7
2017-02-08T01:19:08.384Z,93.66
2017-02-08T01:19:34.530Z,93.7
2017-02-08T01:20:00.700Z,94.18
2017-02-08T01:20:26.835Z,94.42
2017-02-08T01:20:52.969Z,94.42
2017-02-08T01:21:19.076Z,93.99
2017-02-08T01:21:45.248Z,94.08
2017-02-08T01:22:11.391Z,94.37
2017-02-08T01:22:37.524Z,94.08
2017-02-08T01:23:03.629Z,94.08
2017-02-08T01:23:29.791Z,94.37
2017-02-08T01:23:55.939Z,93.94
2017-02-08T01:24:22.089Z,93.99
2017-02-08T01:24:48.220Z,93.99
2017-02-08T01:25:14.376Z,93.89
2017-02-08T01:25:40.509Z,94.08
2017-02-08T01:26:06.614Z,93.8
2017-02-08T01:26:32.770Z,93.13
2017-02-08T01:26:58.887Z,93.75
2017-02-08T01:27:24.996Z,93.94
2017-02-08T01:27:51.180Z,93.51
2017-02-08T01:28:17.343Z,93.8
2017-02-08T01:28:43.473Z,93.89
2017-02-08T01:29:09.636Z,94.08
2017-02-08T01:29:35.724Z,94.27
2017-02-08T01:30:01.858Z,94.13
2017-02-08T01:30:27.994Z,94.08
2017-02-08T01:30:54.168Z,94.08
2017-02-08T01:31:20.340Z,94.08
2017-02-08T01:31:46.435Z,93.89
2017-02-08T01:32:12.561Z,93.51
2017-02-08T01:32:38.711Z,93.32
2017-02-08T01:33:04.941Z,92.94
2017-02-08T01:33:31.085Z,92.94
2017-02-08T01:33:57.266Z,93.04
2017-02-08T01:34:23.348Z,93.37
2017-02-08T01:34:49.481Z,93.42
2017-02-08T01:35:15.667Z,93.7
2017-02-08T01:35:41.805Z,94.08
2017-02-08T01:36:07.937Z,93.7
2017-02-08T01:36:34.075Z,93.51
2017-02-08T01:37:00.203Z,93.61
2017-02-08T01:37:26.396Z,94.08
2017-02-08T01:37:52.513Z,93.23
2017-02-08T01:38:18.671Z,92.94
2017-02-08T01:38:44.841Z,92.66
2017-02-08T01:39:10.999Z,92.94
2017-02-08T01:39:37.143Z,92.66
2017-02-08T01:40:03.335Z,92.57
2017-02-08T01:40:29.515Z,92.76
2017-02-08T01:40:55.742Z,92.57
2017-02-08T01:41:21.891Z,92.47
2017-02-08T01:41:48.051Z,92.66
2017-02-08T01:42:14.186Z,92.57
2017-02-08T01:42:40.323Z,93.04
2017-02-08T01:43:06.431Z,92.85
2017-02-08T01:43:32.627Z,93.42
2017-02-08T01:43:58.749Z,93.04
2017-02-08T01:44:24.862Z,93.42
2017-02-08T01:44:50.979Z,92.47
2017-02-08T01:45:17.187Z,92.66
2017-02-08T01:45:43.331Z,92.57
2017-02-08T01:46:09.487Z,92.57
2017-02-08T01:46:35.671Z,92.47
2017-02-08T01:47:01.823Z,93.13
2017-02-08T01:47:27.951Z,93.04
2017-02-08T01:47:54.058Z,93.13
2017-02-08T01:48:20.200Z,92.94
2017-02-08T01:48:46.327Z,92.66
2017-02-08T01:49:12.474Z,92.66
2017-02-08T01:49:38.606Z,92.66
2017-02-08T01:50:04.737Z,92.29
2017-02-08T01:50:30.883Z,92.61
2017-02-08T01:50:57.069Z,92.94
2017-02-08T01:51:23.228Z,92.8
2017-02-08T01:51:49.347Z,92.47
2017-02-08T01:52:15.450Z,92.57
2017-02-08T01:52:41.588Z,92.76
2017-02-08T01:53:07.696Z,93.13
2017-02-08T01:53:33.800Z,92.85
2017-02-08T01:53:59.916Z,92.94
2017-02-08T01:54:26.079Z,92.94
2017-02-08T01:54:52.183Z,93.13
2017-02-08T01:55:18.325Z,92.85
2017-02-08T01:55:44.513Z,92.47
2017-02-08T01:56:10.709Z,92.76
2017-02-08T01:56:36.853Z,92.38
2017-02-08T01:57:03.004Z,92.29
2017-02-08T01:57:29.188Z,92.29
2017-02-08T01:57:55.382Z,91.72
2017-02-08T01:58:21.590Z,91.81
2017-02-08T01:58:47.671Z,91.81
2017-02-08T01:59:13.772Z,92.29
2017-02-08T01:59:39.876Z,92.1
2017-02-08T02:00:06.016Z,92.19
2017-02-08T02:00:32.141Z,92.19
2017-02-08T02:00:58.276Z,91.91
2017-02-08T02:01:24.401Z,92.57
2017-02-08T02:01:50.548Z,92.29
2017-02-08T02:02:16.775Z,92.47
2017-02-08T02:02:42.892Z,92.38
2017-02-08T02:03:09.064Z,92.29
2017-02-08T02:03:35.201Z,92.19
2017-02-08T02:04:01.347Z,92.38
2017-02-08T02:04:27.489Z,92.29
2017-02-08T02:04:53.624Z,91.72
2017-02-08T02:05:19.850Z,91.81
2017-02-08T02:05:46.011Z,91.72
2017-02-08T02:06:12.203Z,92.1
2017-02-08T02:06:38.349Z,92.19
2017-02-08T02:07:04.519Z,92.29
2017-02-08T02:07:30.648Z,92.38
2017-02-08T02:07:56.769Z,91.72
2017-02-08T02:08:22.894Z,91.91
2017-02-08T02:08:48.999Z,91.81
2017-02-08T02:09:15.120Z,92.19
2017-02-08T02:09:41.243Z,92
2017-02-08T02:10:07.443Z,91.91
2017-02-08T02:10:33.529Z,92.29
2017-02-08T02:10:59.659Z,92.29
2017-02-08T02:11:25.837Z,92.29
2017-02-08T02:11:51.998Z,92.29
2017-02-08T02:12:18.112Z,92.1
2017-02-08T02:12:44.251Z,92.19
2017-02-08T02:13:10.376Z,92.19
2017-02-08T02:13:36.545Z,92.14
2017-02-08T02:14:02.678Z,92.19
2017-02-08T02:14:28.860Z,92.19
2017-02-08T02:14:55.021Z,92.47
2017-02-08T02:15:21.167Z,92.47
2017-02-08T02:15:47.288Z,92.47
2017-02-08T02:16:13.423Z,92.47
2017-02-08T02:16:39.570Z,92.29
2017-02-08T02:17:05.693Z,91.81
2017-02-08T02:17:31.903Z,92.38
2017-02-08T02:17:58.098Z,92.19
2017-02-08T02:18:24.212Z,91.81
2017-02-08T02:18:50.401Z,92.19
2017-02-08T02:19:16.537Z,92
2017-02-08T02:19:42.678Z,92.29
2017-02-08T02:20:08.800Z,92.19
2017-02-08T02:20:34.921Z,92.47
2017-02-08T02:21:01.127Z,92.29
2017-02-08T02:21:27.259Z,92
2017-02-08T02:21:53.426Z,92.57
2017-02-08T02:22:19.529Z,92.29
2017-02-08T02:22:45.727Z,92.19
2017-02-08T02:23:11.826Z,92.57
2017-02-08T02:23:37.955Z,92.66
2017-02-08T02:24:04.152Z,92
2017-02-08T02:24:30.243Z,92.1
2017-02-08T02:24:56.386Z,92.1
2017-02-08T02:25:22.519Z,91.91
2017-02-08T02:25:48.642Z,91.62
2017-02-08T02:26:14.809Z,92.1
2017-02-08T02:26:40.912Z,91.53
2017-02-08T02:27:07.070Z,91.53
2017-02-08T02:27:33.233Z,91.72
2017-02-08T02:27:59.355Z,91.53
2017-02-08T02:28:25.480Z,91.91
2017-02-08T02:28:51.643Z,91.72
2017-02-08T02:29:17.787Z,91.34
2017-02-08T02:29:43.901Z,91.53
2017-02-08T02:30:10.061Z,91.91
2017-02-08T02:30:36.190Z,91.81
2017-02-08T02:31:02.326Z,91.53
2017-02-08T02:31:28.632Z,91.91
2017-02-08T02:31:54.780Z,91.34
2017-02-08T02:32:20.881Z,91.24
2017-02-08T02:32:47.037Z,90.96
2017-02-08T02:33:13.221Z,91.24
2017-02-08T02:33:39.358Z,91.15
2017-02-08T02:34:05.545Z,91.15
2017-02-08T02:34:31.661Z,91.34
2017-02-08T02:34:57.798Z,91.15
2017-02-08T02:35:23.923Z,91.43
2017-02-08T02:35:50.041Z,91.34
2017-02-08T02:36:16.192Z,91.34
2017-02-08T02:36:42.336Z,91.53
2017-02-08T02:37:08.469Z,92
2017-02-08T02:37:34.570Z,91.43
2017-02-08T02:38:00.683Z,91.24
2017-02-08T02:38:26.839Z,91.34
2017-02-08T02:38:52.966Z,91.05
2017-02-08T02:39:19.101Z,90.58
2017-02-08T02:39:45.256Z,90.77
2017-02-08T02:40:11.413Z,91.05
2017-02-08T02:40:37.526Z,91.43
2017-02-08T02:41:03.655Z,91.43
2017-02-08T02:41:29.759Z,90.86
2017-02-08T02:41:55.923Z,91.53
2017-02-08T02:42:22.016Z,91.05
2017-02-08T02:42:48.167Z,91.15
2017-02-08T02:43:14.303Z,91.34
2017-02-08T02:43:40.438Z,91.62
2017-02-08T02:44:06.578Z,90.86
2017-02-08T02:44:32.707Z,91.34
2017-02-08T02:44:58.841Z,91.39
2017-02-08T02:45:25.033Z,91.53
2017-02-08T02:45:51.132Z,91.91
2017-02-08T02:46:17.290Z,91.91
2017-02-08T02:46:43.438Z,91.72
2017-02-08T02:47:09.549Z,92
2017-02-08T02:47:35.692Z,91.62
2017-02-08T02:48:01.817Z,91.43
2017-02-08T02:48:27.918Z,91.62
2017-02-08T02:48:54.088Z,91.72
2017-02-08T02:49:20.259Z,91.81
2017-02-08T02:49:46.397Z,91.53
2017-02-08T02:50:12.541Z,92.1
2017-02-08T02:50:38.674Z,92
2017-02-08T02:51:04.834Z,91.62
2017-02-08T02:51:30.963Z,91.53
2017-02-08T02:51:57.088Z,91.43
2017-02-08T02:52:23.214Z,90.58
2017-02-08T02:52:49.373Z,90.67
2017-02-08T02:53:15.458Z,90.77
2017-02-08T02:53:41.565Z,90.77
2017-02-08T02:54:07.667Z,90.39
2017-02-08T02:54:33.839Z,90.86
2017-02-08T02:54:59.969Z,90.63
2017-02-08T02:55:26.104Z,91.34
2017-02-08T02:55:52.237Z,91.24
2017-02-08T02:56:18.383Z,91.53
2017-02-08T02:56:44.549Z,92.1
2017-02-08T02:57:10.640Z,90.96
2017-02-08T02:57:36.763Z,91.05
2017-02-08T02:58:02.946Z,90.86
2017-02-08T02:58:29.077Z,91.15
2017-02-08T02:58:55.207Z,90.58
2017-02-08T02:59:21.368Z,90.48
2017-02-08T02:59:47.513Z,91.05
2017-02-08T03:00:13.699Z,91.05
2017-02-08T03:00:39.904Z,90.48
2017-02-08T03:01:06.055Z,90.86
2017-02-08T03:01:32.199Z,90.67
2017-02-08T03:01:58.404Z,91.15
2017-02-08T03:02:24.539Z,91.15
2017-02-08T03:02:50.684Z,91.43
2017-02-08T03:03:16.878Z,90.77
2017-02-08T03:03:43.014Z,90.77
2017-02-08T03:04:09.133Z,90.86
2017-02-08T03:04:35.274Z,90.67
2017-02-08T03:05:01.471Z,91.05
2017-02-08T03:05:27.569Z,90.77
2017-02-08T03:05:53.741Z,90.77
2017-02-08T03:06:19.929Z,90.77
2017-02-08T03:06:46.026Z,90.77
2017-02-08T03:07:12.184Z,90.77
2017-02-08T03:07:38.301Z,90.86
2017-02-08T03:08:04.415Z,90.67
2017-02-08T03:08:30.576Z,90.77
2017-02-08T03:08:56.741Z,90.58
2017-02-08T03:09:22.871Z,90.48
2017-02-08T03:09:49.089Z,91.15
2017-02-08T03:10:15.266Z,90.86
2017-02-08T03:10:41.392Z,91.05
2017-02-08T03:11:07.485Z,91.05
2017-02-08T03:11:33.624Z,91.53
2017-02-08T03:11:59.761Z,91.24
2017-02-08T03:12:25.911Z,90.58
2017-02-08T03:12:52.058Z,90.67
2017-02-08T03:13:18.216Z,90.67
2017-02-08T03:13:44.400Z,90.58
2017-02-08T03:14:10.565Z,90.77
2017-02-08T03:14:36.721Z,90.86
2017-02-08T03:15:02.857Z,90.77
2017-02-08T03:15:28.965Z,91.24
2017-02-08T03:15:55.143Z,90.67
2017-02-08T03:16:21.262Z,90.77
2017-02-08T03:16:47.423Z,91.53
2017-02-08T03:17:13.587Z,91.15
2017-02-08T03:17:39.694Z,91.15
2017-02-08T03:18:05.850Z,91.53
2017-02-08T03:18:31.956Z,91.34
2017-02-08T03:18:58.072Z,91.05
2017-02-08T03:19:24.213Z,90.58
2017-02-08T03:19:50.323Z,91.05
2017-02-08T03:20:16.461Z,90.77
2017-02-08T03:20:42.618Z,90.91
2017-02-08T03:21:08.771Z,90.67
2017-02-08T03:21:34.887Z,91.05
2017-02-08T03:22:01.055Z,91.34
2017-02-08T03:22:27.160Z,91.43
2017-02-08T03:22:53.335Z,90.72
2017-02-08T03:23:19.468Z,91.2
2017-02-08T03:23:45.613Z,91.15
2017-02-08T03:24:11.708Z,91.43
2017-02-08T03:24:37.841Z,90.86
2017-02-08T03:25:03.962Z,90.77
2017-02-08T03:25:30.046Z,91.43
2017-02-08T03:25:56.188Z,91.29
2017-02-08T03:26:22.282Z,91.53
2017-02-08T03:26:48.451Z,91.05
2017-02-08T03:27:14.662Z,91.05
2017-02-08T03:27:40.810Z,91.34
2017-02-08T03:28:06.996Z,91.53
2017-02-08T03:28:33.114Z,91.34
2017-02-08T03:28:59.202Z,91.62
2017-02-08T03:29:25.411Z,91.34
2017-02-08T03:29:51.510Z,91.53
2017-02-08T03:30:17.676Z,91.43
2017-02-08T03:30:43.813Z,91.05
2017-02-08T03:31:09.975Z,91.24
2017-02-08T03:31:36.091Z,91.53
2017-02-08T03:32:02.194Z,91.05
2017-02-08T03:32:28.294Z,91.05
2017-02-08T03:32:54.443Z,90.86
2017-02-08T03:33:20.598Z,91.34
2017-02-08T03:33:46.764Z,91.34
2017-02-08T03:34:12.900Z,91.34
2017-02-08T03:34:39.116Z,90.77
2017-02-08T03:35:05.258Z,90.67
2017-02-08T03:35:31.441Z,90.77
2017-02-08T03:35:57.696Z,90.77
2017-02-08T03:36:23.804Z,90.86
2017-02-08T03:36:49.960Z,90.86
2017-02-08T03:37:16.117Z,90.77
2017-02-08T03:37:42.263Z,90.96
2017-02-08T03:38:08.408Z,91.05
2017-02-08T03:38:34.566Z,90.86
2017-02-08T03:39:00.714Z,91.15
2017-02-08T03:39:26.826Z,91.53
2017-02-08T03:39:52.961Z,91.43
2017-02-08T03:40:19.102Z,91.34
2017-02-08T03:40:45.211Z,91.24
2017-02-08T03:41:11.347Z,91.05
2017-02-08T03:41:37.512Z,90.77
2017-02-08T03:42:03.647Z,90.2
2017-02-08T03:42:29.771Z,91.05
2017-02-08T03:42:55.991Z,91.34
2017-02-08T03:43:22.130Z,90.96
2017-02-08T03:43:48.292Z,91.34
2017-02-08T03:44:14.404Z,91.24
2017-02-08T03:44:40.560Z,90.67
2017-02-08T03:45:06.693Z,90.67
2017-02-08T03:45:32.803Z,90.3
2017-02-08T03:45:58.931Z,90.11
2017-02-08T03:46:25.150Z,90.11
2017-02-08T03:46:51.238Z,90.11
2017-02-08T03:47:17.386Z,90.86
2017-02-08T03:47:43.527Z,90.86
2017-02-08T03:48:09.615Z,91.05
2017-02-08T03:48:35.766Z,90.86
2017-02-08T03:49:01.895Z,90.11
2017-02-08T03:49:27.987Z,89.82
2017-02-08T03:49:54.123Z,90.11
2017-02-08T03:50:20.289Z,90.39
2017-02-08T03:50:46.444Z,90.2
2017-02-08T03:51:12.588Z,90.2
2017-02-08T03:51:38.732Z,90.2
2017-02-08T03:52:04.875Z,90.39
2017-02-08T03:52:31.067Z,90.2
2017-02-08T03:52:57.209Z,90.11
2017-02-08T03:53:23.323Z,90.3
2017-02-08T03:53:49.433Z,90.77
2017-02-08T03:54:15.583Z,90.86
2017-02-08T03:54:41.730Z,90.86
2017-02-08T03:55:07.866Z,90.86
2017-02-08T03:55:34.007Z,91.34
2017-02-08T03:56:00.151Z,91.43
2017-02-08T03:56:26.293Z,90.86
2017-02-08T03:56:52.386Z,90.11
2017-02-08T03:57:18.557Z,90.3
2017-02-08T03:57:44.732Z,89.82
2017-02-08T03:58:10.866Z,89.82
2017-02-08T03:58:37.032Z,90.11
2017-02-08T03:59:03.138Z,90.01
2017-02-08T03:59:29.300Z,89.92
2017-02-08T03:59:55.450Z,90.2
2017-02-08T04:00:21.582Z,90.67
2017-02-08T04:00:47.718Z,90.01
2017-02-08T04:01:13.917Z,90.11
2017-02-08T04:01:40.054Z,90.2
2017-02-08T04:02:06.201Z,90.11
2017-02-08T04:02:32.371Z,90.2
2017-02-08T04:02:58.538Z,90.48
2017-02-08T04:03:24.686Z,90.39
2017-02-08T04:03:50.826Z,90.58
2017-02-08T04:04:17.000Z,90.3
2017-02-08T04:04:43.159Z,90.2
2017-02-08T04:05:09.322Z,89.92
2017-02-08T04:05:35.512Z,90.2
2017-02-08T04:06:01.606Z,90.39
2017-02-08T04:06:27.761Z,90.11
2017-02-08T04:06:53.966Z,90.39
2017-02-08T04:07:20.099Z,90.39
2017-02-08T04:07:46.258Z,90.48
2017-02-08T04:08:12.383Z,90.11
2017-02-08T04:08:38.550Z,90.11
2017-02-08T04:09:04.742Z,90.2
2017-02-08T04:09:30.956Z,89.92
2017-02-08T04:09:57.035Z,90.11
2017-02-08T04:10:23.167Z,90.3
2017-02-08T04:10:49.330Z,90.2
2017-02-08T04:11:15.449Z,89.82
2017-02-08T04:11:41.548Z,90.3
2017-02-08T04:12:07.741Z,90.2
2017-02-08T04:12:33.875Z,90.3
2017-02-08T04:13:00.094Z,90.58
2017-02-08T04:13:26.181Z,90.77
2017-02-08T04:13:52.341Z,90.39
2017-02-08T04:14:18.447Z,90.86
2017-02-08T04:14:44.608Z,90.11
2017-02-08T04:15:10.762Z,90.48
2017-02-08T04:15:36.960Z,90.67
2017-02-08T04:16:03.072Z,90.39
2017-02-08T04:16:29.195Z,90.58
2017-02-08T04:16:55.350Z,89.82
2017-02-08T04:17:21.499Z,90.11
2017-02-08T04:17:47.667Z,90.3
2017-02-08T04:18:13.771Z,90.01
2017-02-08T04:18:39.966Z,89.92
2017-02-08T04:19:06.154Z,90.2
2017-02-08T04:19:32.329Z,90.11
2017-02-08T04:19:58.473Z,90.11
2017-02-08T04:20:24.659Z,90.2
2017-02-08T04:20:50.771Z,90.67
2017-02-08T04:21:16.934Z,89.92
2017-02-08T04:21:43.129Z,89.73
2017-02-08T04:22:09.254Z,89.82
2017-02-08T04:22:35.374Z,90.11
2017-02-08T04:23:01.499Z,89.44
2017-02-08T04:23:27.689Z,90.01
2017-02-08T04:23:53.831Z,90.3
2017-02-08T04:24:19.967Z,90.11
2017-02-08T04:24:46.099Z,89.82
2017-02-08T04:25:12.213Z,90.39
2017-02-08T04:25:38.345Z,90.01
2017-02-08T04:26:04.475Z,89.44
2017-02-08T04:26:30.564Z,89.82
2017-02-08T04:26:56.698Z,89.54
2017-02-08T04:27:22.840Z,89.73
2017-02-08T04:27:48.960Z,89.63
2017-02-08T04:28:15.137Z,89.63
2017-02-08T04:28:41.262Z,89.92
2017-02-08T04:29:07.360Z,89.92
2017-02-08T04:29:33.491Z,89.06
2017-02-08T04:29:59.609Z,90.01
2017-02-08T04:30:25.756Z,90.11
2017-02-08T04:30:51.945Z,90.48
2017-02-08T04:31:18.097Z,90.01
2017-02-08T04:31:44.216Z,90.3
2017-02-08T04:32:10.359Z,89.63
2017-02-08T04:32:36.489Z,89.54
2017-02-08T04:33:02.604Z,89.44
2017-02-08T04:33:28.791Z,89.44
2017-02-08T04:33:54.972Z,89.92
2017-02-08T04:34:21.100Z,90.3
2017-02-08T04:34:47.248Z,90.39
2017-02-08T04:35:13.393Z,90.67
2017-02-08T04:35:39.552Z,90.01
2017-02-08T04:36:05.699Z,89.73
2017-02-08T04:36:31.839Z,90.11
2017-02-08T04:36:57.998Z,90.01
2017-02-08T04:37:24.187Z,90.39
2017-02-08T04:37:50.296Z,90.2
2017-02-08T04:38:16.430Z,90.01
2017-02-08T04:38:42.558Z,90.3
2017-02-08T04:39:08.730Z,90.01
2017-02-08T04:39:34.882Z,90.39
2017-02-08T04:40:01.059Z,90.39
2017-02-08T04:40:27.250Z,90.39
2017-02-08T04:40:53.426Z,90.58
2017-02-08T04:41:19.595Z,90.3
2017-02-08T04:41:45.719Z,90.39
2017-02-08T04:42:11.882Z,90.01
2017-02-08T04:42:38.000Z,90.39
2017-02-08T04:43:04.099Z,90.48
2017-02-08T04:43:30.295Z,90.48
2017-02-08T04:43:56.429Z,90.39
2017-02-08T04:44:22.602Z,90.3
2017-02-08T04:44:48.731Z,90.01
2017-02-08T04:45:14.883Z,89.92
2017-02-08T04:45:41.018Z,90.01
2017-02-08T04:46:07.127Z,90.58
2017-02-08T04:46:33.303Z,90.11
2017-02-08T04:46:59.467Z,90.3
2017-02-08T04:47:25.635Z,90.01
2017-02-08T04:47:51.758Z,90.01
2017-02-08T04:48:17.921Z,89.82
2017-02-08T04:48:44.046Z,90.39
2017-02-08T04:49:10.160Z,89.92
2017-02-08T04:49:36.356Z,90.11
2017-02-08T04:50:02.542Z,90.3
2017-02-08T04:50:28.659Z,90.25
2017-02-08T04:50:54.843Z,90.11
2017-02-08T04:51:20.985Z,90.2
2017-02-08T04:51:47.153Z,90.11
2017-02-08T04:52:13.336Z,90.06
2017-02-08T04:52:39.502Z,90.11
2017-02-08T04:53:05.637Z,90.3
2017-02-08T04:53:31.756Z,90.01
2017-02-08T04:53:57.928Z,90.39
2017-02-08T04:54:24.066Z,90.72
2017-02-08T04:54:50.231Z,90.72
2017-02-08T04:55:16.370Z,90.82
2017-02-08T04:55:42.532Z,90.06
2017-02-08T04:56:08.657Z,90.91
2017-02-08T04:56:34.822Z,91.01
2017-02-08T04:57:00.953Z,90.67
2017-02-08T04:57:27.042Z,90.58
2017-02-08T04:57:53.214Z,90.11
2017-02-08T04:58:19.338Z,90.86
2017-02-08T04:58:45.433Z,90.67
2017-02-08T04:59:11.613Z,90.77
2017-02-08T04:59:37.805Z,90.77
2017-02-08T05:00:04.011Z,91.05
2017-02-08T05:00:30.155Z,90.86
2017-02-08T05:00:56.366Z,90.58
2017-02-08T05:01:22.514Z,90.77
2017-02-08T05:01:48.612Z,90.2
2017-02-08T05:02:14.753Z,90.01
2017-02-08T05:02:40.911Z,90.34
2017-02-08T05:03:07.137Z,89.87
2017-02-08T05:03:33.221Z,90.2
2017-02-08T05:03:59.396Z,90.67
2017-02-08T05:04:25.526Z,90.11
2017-02-08T05:04:51.645Z,90.39
2017-02-08T05:05:17.856Z,90.2
2017-02-08T05:05:44.049Z,89.73
2017-02-08T05:06:10.196Z,90.11
2017-02-08T05:06:36.308Z,89.82
2017-02-08T05:07:02.497Z,90.2
2017-02-08T05:07:28.649Z,90.11
2017-02-08T05:07:54.768Z,89.92
2017-02-08T05:08:20.898Z,90.39
2017-02-08T05:08:47.031Z,90.67
2017-02-08T05:09:13.143Z,90.48
2017-02-08T05:09:39.300Z,90.2
2017-02-08T05:10:05.511Z,90.39
2017-02-08T05:10:31.650Z,90.3
2017-02-08T05:10:57.831Z,90.11
2017-02-08T05:11:23.971Z,90.01
2017-02-08T05:11:50.139Z,90.39
2017-02-08T05:12:16.287Z,90.2
2017-02-08T05:12:42.446Z,90.48
2017-02-08T05:13:08.589Z,90.39
2017-02-08T05:13:34.776Z,90.3
2017-02-08T05:14:00.860Z,90.11
2017-02-08T05:14:27.006Z,90.01
2017-02-08T05:14:53.164Z,90.3
2017-02-08T05:15:19.281Z,90.11
2017-02-08T05:15:45.437Z,90.39
2017-02-08T05:16:11.600Z,90.48
2017-02-08T05:16:37.725Z,90.3
2017-02-08T05:17:03.905Z,90.3
2017-02-08T05:17:30.041Z,89.44
2017-02-08T05:17:56.166Z,90.01
2017-02-08T05:18:22.315Z,89.54
2017-02-08T05:18:48.500Z,89.82
2017-02-08T05:19:14.649Z,90.3
2017-02-08T05:19:40.793Z,89.73
2017-02-08T05:20:06.906Z,89.35
2017-02-08T05:20:33.026Z,90.11
2017-02-08T05:20:59.210Z,90.01
2017-02-08T05:21:25.416Z,89.82
2017-02-08T05:21:51.525Z,90.11
2017-02-08T05:22:17.683Z,89.44
2017-02-08T05:22:43.878Z,89.73
2017-02-08T05:23:10.023Z,90.2
2017-02-08T05:23:36.145Z,90.2
2017-02-08T05:24:02.300Z,90.67
2017-02-08T05:24:28.476Z,90.48
2017-02-08T05:24:54.650Z,90.11
2017-02-08T05:25:20.737Z,90.11
2017-02-08T05:25:46.900Z,90.01
2017-02-08T05:26:13.026Z,90.2
2017-02-08T05:26:39.146Z,90.16
2017-02-08T05:27:05.304Z,90.48
2017-02-08T05:27:31.470Z,90.3
2017-02-08T05:27:57.609Z,90.48
2017-02-08T05:28:23.759Z,90.2
2017-02-08T05:28:49.961Z,90.11
2017-02-08T05:29:16.104Z,90.3
2017-02-08T05:29:42.204Z,90.3
2017-02-08T05:30:08.412Z,89.97
2017-02-08T05:30:34.569Z,90.01
2017-02-08T05:31:00.692Z,90.2
2017-02-08T05:31:26.807Z,90.01
2017-02-08T05:31:52.930Z,90.3
2017-02-08T05:32:19.091Z,90.06
2017-02-08T05:32:45.282Z,89.97
2017-02-08T05:33:11.457Z,89.92
2017-02-08T05:33:37.615Z,90.01
2017-02-08T05:34:03.780Z,90.25
2017-02-08T05:34:29.894Z,89.97
2017-02-08T05:34:56.065Z,90.01
2017-02-08T05:35:22.217Z,89.97
2017-02-08T05:35:48.402Z,90.01
2017-02-08T05:36:14.546Z,90.34
2017-02-08T05:36:40.640Z,90.34
2017-02-08T05:37:06.831Z,90.06
2017-02-08T05:37:33.007Z,89.78
2017-02-08T05:37:59.139Z,90.25
2017-02-08T05:38:25.312Z,90.06
2017-02-08T05:38:51.508Z,90.77